Portada
METAR-TAF:

METAR-TAF

Aeroports :

Nouméa, Nova Caledònia

latitud: 22-15-30S, longitud: 166-28-22E, altitud: 3 m

METAR: manca

Hora: 21:36 (10:36 UTC)

Pronòstic

L'informe es va fer fa 17 hores i 36 minuts, a les 17:00 UTC
Pronòstic vàlid del 24 a les 18 UTC al 25 a les 18 UTC
Vent 6 kt del Sud-Est
Visibilitat 10 km o més
Núvols disperses a una alçada de 1000 ft
Núvols disperses a una alçada de 2500 ft
Cel ennuvolat a una alçada de 4000 ft
Temporalment
l' 24 a les 18 UTC al 24 a les 21 UTC
Visibilitat: 4000 m
Cel ennuvolat a una alçada de 1000 ft
Escasses núvols a una alçada de 2000 ft, Cumulus congestus.
xàfecs de pluja
Evolucionant progressivament
l' 24 a les 22 UTC al 24 a les 24 UTC
Vent 10 kt del Sud/Sud-Oest

TAF: NWWM 241700Z 2418/2518 14006KT 9999 SCT010 SCT025 BKN040 TEMPO 2418/2421 4000 SHRA BKN010 FEW020TCU BECMG 2422/2424 20010KT

Observacions i pronòstics meteorològics de més de 4000 aeroports (METAR i TAF).

Les estacions disponibles són els punts grocs i vermells al mapa.

Posi el ratolí al punt desitjat per veure el nom de l'estació.

Feu clic per veure les observacions i els pronòstics meteorològics.

Per canviar el mapa: feu clic els botons verds amb una creu de color negre per apropar; al botó verd amb un guió per allunyar la imatge; o en les fletxes verdes per a mapes adjacents.


METAR-TAF: